Time;durP1;ratioP1;P1;durP2;ratioP2;P2;SDS_P1;SDS_P2;PMS_P1;PMS_P2;Temp;Humidity;BMP_temperature;BMP_pressure;BME280_temperature;BME280_humidity;BME280_pressure;Samples;Min_cycle;Max_cycle;Signal;HPM_P1;HPM_P2
2023/07/23 05:21:30;;;;;;;7.38;6.63;;;23.10;99.90;;;;;;5077674;28;20036;-52
2023/07/23 05:38:57;;;;;;;7.68;6.88;;;23.40;99.90;;;;;;5087783;28;20039;-50
2023/07/23 05:52:34;;;;;;;10.20;9.20;;;23.50;99.90;;;;;;5091409;28;20453;-51
2023/07/23 05:55:24;;;;;;;11.33;10.10;;;23.50;99.90;;;;;;5095545;28;20119;-50
2023/07/23 06:12:09;;;;;;;14.90;13.30;;;23.80;99.90;;;;;;5055285;28;20075;-53
2023/07/23 06:55:03;;;;;;;17.63;15.93;;;24.10;99.90;;;;;;5094767;28;20047;-51
2023/07/23 07:04:49;;;;;;;18.90;17.20;;;;;;;;;;5094375;28;20452;-52
2023/07/23 07:07:15;;;;;;;18.58;16.90;;;;;;;;;;5094126;28;20036;-51
2023/07/23 21:23:23;;;;;;;13.43;12.02;;;24.00;99.90;;;;;;5074593;27;1379198;-54
2023/07/23 21:25:49;;;;;;;14.20;12.10;;;23.90;99.90;;;;;;5109732;28;20485;-54
2023/07/23 21:28:15;;;;;;;13.95;11.73;;;23.90;99.90;;;;;;5109786;28;20458;-54
2023/07/23 21:30:46;;;;;;;14.80;11.82;;;23.80;99.90;;;;;;5110313;28;20080;-55
2023/07/23 21:33:12;;;;;;;13.07;11.25;;;24.00;99.90;;;;;;5109534;28;20120;-55
2023/07/23 21:35:40;;;;;;;13.10;11.70;;;;;;;;;;5109761;28;20119;-55
2023/07/23 21:38:05;;;;;;;13.45;12.02;;;23.70;99.90;;;;;;5091236;28;20047;-55
2023/07/23 21:40:31;;;;;;;15.13;12.55;;;;;;;;;;5109375;28;20532;-55
2023/07/23 21:42:57;;;;;;;13.95;11.98;;;23.50;99.90;;;;;;5109797;28;20463;-55
2023/07/23 21:45:23;;;;;;;16.15;12.57;;;23.50;99.90;;;;;;5110033;28;20019;-54
2023/07/23 21:47:50;;;;;;;14.23;12.32;;;23.60;99.90;;;;;;5110132;28;20027;-56
2023/07/23 21:50:16;;;;;;;15.23;11.70;;;23.80;99.90;;;;;;5109718;28;20030;-55
2023/07/23 21:52:42;;;;;;;19.48;12.30;;;23.80;99.90;;;;;;5109625;28;20023;-55
2023/07/23 21:55:08;;;;;;;15.32;12.93;;;;;;;;;;5109697;28;20491;-54
2023/07/23 21:57:54;;;;;;;14.95;12.30;;;23.60;99.90;;;;;;5066509;28;20032;-54
2023/07/23 22:00:19;;;;;;;15.35;12.57;;;23.80;99.90;;;;;;5066320;28;20090;-53
2023/07/23 22:02:45;;;;;;;15.00;13.40;;;23.80;99.90;;;;;;5066976;28;20040;-55
2023/07/23 22:05:11;;;;;;;15.90;13.02;;;;;;;;;;5049642;28;20020;-54
2023/07/23 22:07:37;;;;;;;17.30;13.55;;;23.60;99.90;;;;;;5066286;28;20036;-54
2023/07/23 22:10:03;;;;;;;14.38;12.88;;;23.60;99.90;;;;;;5066256;28;20537;-54
2023/07/23 22:12:29;;;;;;;16.92;13.57;;;23.60;99.90;;;;;;5016163;28;20041;-54
2023/07/23 22:14:55;;;;;;;16.83;14.05;;;23.50;99.90;;;;;;5066188;28;20036;-54
2023/07/23 22:17:21;;;;;;;15.30;13.70;;;;;;;;;;5066105;28;20809;-54
2023/07/23 22:19:46;;;;;;;15.30;13.07;;;23.40;99.90;;;;;;5067152;28;20104;-54
2023/07/23 22:22:12;;;;;;;18.33;13.70;;;23.30;99.90;;;;;;5065953;28;20460;-54
2023/07/23 22:24:38;;;;;;;17.55;13.65;;;23.40;99.90;;;;;;5085763;28;20052;-54
2023/07/23 22:27:04;;;;;;;18.77;14.68;;;23.30;99.90;;;;;;5086202;28;20035;-55
2023/07/23 22:29:30;;;;;;;17.38;13.15;;;23.40;99.90;;;;;;5103329;28;20035;-54
2023/07/23 22:31:55;;;;;;;14.27;12.77;;;23.30;99.90;;;;;;5113101;28;20023;-54
2023/07/23 22:34:21;;;;;;;14.38;12.88;;;23.40;99.90;;;;;;5113114;28;20020;-55
2023/07/23 22:36:47;;;;;;;15.38;13.02;;;23.40;99.90;;;;;;5113865;28;20024;-54
2023/07/23 22:39:14;;;;;;;17.25;13.65;;;23.50;99.90;;;;;;5112915;28;20016;-54
2023/07/23 22:41:39;;;;;;;16.80;12.82;;;23.60;99.90;;;;;;5112872;27;20110;-54
2023/07/23 22:44:06;;;;;;;16.90;13.98;;;23.40;99.90;;;;;;5112751;28;20325;-54
2023/07/23 22:46:34;;;;;;;16.70;14.40;;;23.30;99.90;;;;;;5112623;27;20039;-54
2023/07/23 22:49:00;;;;;;;16.10;13.65;;;23.30;99.90;;;;;;5112886;28;20064;-54
2023/07/23 22:51:26;;;;;;;15.23;13.48;;;23.40;99.90;;;;;;5112459;28;20030;-54
2023/07/23 22:53:52;;;;;;;14.90;13.30;;;23.60;99.90;;;;;;5113556;28;20107;-54
2023/07/23 22:56:19;;;;;;;14.85;13.25;;;23.60;99.90;;;;;;5112760;27;20519;-54
2023/07/23 22:58:49;;;;;;;15.70;13.52;;;23.50;99.90;;;;;;5112706;28;20031;-54
2023/07/23 23:01:16;;;;;;;20.63;14.10;;;23.50;99.90;;;;;;5076125;28;20036;-54
2023/07/23 23:03:42;;;;;;;20.05;13.60;;;23.50;99.90;;;;;;5112868;28;20036;-54
2023/07/23 23:06:08;;;;;;;15.50;13.15;;;23.40;99.90;;;;;;5112993;28;20562;-54
2023/07/23 23:08:33;;;;;;;14.93;13.35;;;23.40;99.90;;;;;;5112269;28;20102;-54
2023/07/23 23:10:59;;;;;;;17.95;13.57;;;23.50;99.90;;;;;;5093836;28;20483;-54
2023/07/23 23:13:25;;;;;;;17.55;13.30;;;23.60;99.90;;;;;;5112028;28;20031;-54
2023/07/23 23:15:51;;;;;;;14.32;12.73;;;23.80;99.90;;;;;;5075729;28;20104;-54
2023/07/23 23:18:17;;;;;;;16.13;13.02;;;23.90;99.90;;;;;;5088599;28;20047;-55
2023/07/23 23:20:43;;;;;;;14.35;12.85;;;24.10;99.90;;;;;;5088926;28;20064;-54
2023/07/23 23:23:09;;;;;;;14.02;12.52;;;24.10;99.90;;;;;;5088688;28;20419;-54
2023/07/23 23:25:35;;;;;;;14.77;12.05;;;24.00;99.90;;;;;;5055256;28;20205;-54
2023/07/23 23:28:00;;;;;;;15.07;13.18;;;23.90;99.90;;;;;;5089953;28;20364;-54
2023/07/23 23:30:26;;;;;;;16.17;13.15;;;24.00;99.90;;;;;;5088878;28;20032;-54
2023/07/23 23:32:52;;;;;;;15.40;12.80;;;24.10;99.90;;;;;;5088949;28;20047;-56
2023/07/23 23:35:18;;;;;;;17.15;14.18;;;24.20;99.90;;;;;;5088809;28;20031;-55
2023/07/23 23:37:43;;;;;;;16.10;13.45;;;24.20;99.90;;;;;;5088632;28;20040;-55
2023/07/23 23:40:10;;;;;;;16.63;13.68;;;24.20;99.90;;;;;;5088718;28;20028;-54
2023/07/23 23:42:36;;;;;;;14.95;13.23;;;24.20;99.90;;;;;;5054797;28;20052;-55
2023/07/23 23:45:03;;;;;;;15.25;13.63;;;24.20;99.90;;;;;;5089554;28;20123;-55
2023/07/23 23:47:30;;;;;;;16.13;14.07;;;24.20;99.90;;;;;;5088276;28;20024;-53
2023/07/23 23:49:56;;;;;;;19.17;14.68;;;23.80;99.90;;;;;;5082589;28;20046;-54
2023/07/23 23:52:21;;;;;;;17.75;14.75;;;23.70;99.90;;;;;;5111350;28;20102;-54
2023/07/23 23:54:47;;;;;;;16.58;14.05;;;23.70;99.90;;;;;;5111575;28;20023;-56
2023/07/23 23:57:13;;;;;;;15.50;13.90;;;23.80;99.90;;;;;;5111945;28;20024;-55
2023/07/23 23:59:39;;;;;;;15.68;13.23;;;23.80;99.90;;;;;;5111366;27;20024;-54
